sensor_id;sensor_type;location;lat;lon;timestamp;temperature;humidity
9167;DHT22;4618;48.818;9.088;2023-02-01T00:00:22;3.50;99.90
9167;DHT22;4618;48.818;9.088;2023-02-01T00:02:48;3.50;99.90
9167;DHT22;4618;48.818;9.088;2023-02-01T00:05:13;3.50;99.90
9167;DHT22;4618;48.818;9.088;2023-02-01T00:07:39;3.50;99.90
9167;DHT22;4618;48.818;9.088;2023-02-01T00:10:06;3.50;99.90
9167;DHT22;4618;48.818;9.088;2023-02-01T00:12:32;3.50;99.90
9167;DHT22;4618;48.818;9.088;2023-02-01T00:14:57;3.50;99.90
9167;DHT22;4618;48.818;9.088;2023-02-01T00:17:23;3.50;99.90
9167;DHT22;4618;48.818;9.088;2023-02-01T00:19:49;3.60;99.90
9167;DHT22;4618;48.818;9.088;2023-02-01T00:22:14;3.60;99.90
9167;DHT22;4618;48.818;9.088;2023-02-01T00:24:40;3.60;99.90
9167;DHT22;4618;48.818;9.088;2023-02-01T00:27:06;3.60;99.90
9167;DHT22;4618;48.818;9.088;2023-02-01T00:29:31;3.60;50.70
9167;DHT22;4618;48.818;9.088;2023-02-01T00:31:57;3.70;1.00
9167;DHT22;4618;48.818;9.088;2023-02-01T00:34:23;3.60;16.10
9167;DHT22;4618;48.818;9.088;2023-02-01T00:36:48;3.60;99.90
9167;DHT22;4618;48.818;9.088;2023-02-01T00:39:15;3.50;99.90
9167;DHT22;4618;48.818;9.088;2023-02-01T00:41:40;3.60;99.90
9167;DHT22;4618;48.818;9.088;2023-02-01T00:44:06;3.50;99.90
9167;DHT22;4618;48.818;9.088;2023-02-01T00:46:32;3.60;99.90
9167;DHT22;4618;48.818;9.088;2023-02-01T00:48:58;3.60;99.90
9167;DHT22;4618;48.818;9.088;2023-02-01T00:51:25;3.60;82.80
9167;DHT22;4618;48.818;9.088;2023-02-01T00:53:52;3.60;52.70
9167;DHT22;4618;48.818;9.088;2023-02-01T00:56:18;3.60;1.00
9167;DHT22;4618;48.818;9.088;2023-02-01T00:58:43;3.60;1.00
9167;DHT22;4618;48.818;9.088;2023-02-01T01:01:11;3.60;1.00
9167;DHT22;4618;48.818;9.088;2023-02-01T01:03:40;3.70;1.00
9167;DHT22;4618;48.818;9.088;2023-02-01T01:06:10;3.70;1.00
9167;DHT22;4618;48.818;9.088;2023-02-01T01:08:36;3.80;1.00
9167;DHT22;4618;48.818;9.088;2023-02-01T01:11:11;3.70;1.00
9167;DHT22;4618;48.818;9.088;2023-02-01T01:13:37;3.60;1.00
9167;DHT22;4618;48.818;9.088;2023-02-01T01:16:04;3.70;1.00
9167;DHT22;4618;48.818;9.088;2023-02-01T01:18:31;3.60;26.30
9167;DHT22;4618;48.818;9.088;2023-02-01T01:20:58;3.70;1.00
9167;DHT22;4618;48.818;9.088;2023-02-01T01:23:23;3.70;1.00
9167;DHT22;4618;48.818;9.088;2023-02-01T01:25:49;3.70;1.00
9167;DHT22;4618;48.818;9.088;2023-02-01T01:28:15;3.70;1.00
9167;DHT22;4618;48.818;9.088;2023-02-01T01:30:40;3.80;1.00
9167;DHT22;4618;48.818;9.088;2023-02-01T01:33:06;3.80;1.00
9167;DHT22;4618;48.818;9.088;2023-02-01T01:35:32;3.80;1.00
9167;DHT22;4618;48.818;9.088;2023-02-01T01:37:59;3.80;1.00
9167;DHT22;4618;48.818;9.088;2023-02-01T01:40:26;3.80;1.00
9167;DHT22;4618;48.818;9.088;2023-02-01T01:42:52;3.80;1.00
9167;DHT22;4618;48.818;9.088;2023-02-01T01:45:27;3.80;99.90
9167;DHT22;4618;48.818;9.088;2023-02-01T01:47:55;3.80;1.00
9167;DHT22;4618;48.818;9.088;2023-02-01T01:50:32;3.90;1.00
9167;DHT22;4618;48.818;9.088;2023-02-01T01:53:01;3.80;1.00
9167;DHT22;4618;48.818;9.088;2023-02-01T01:55:31;3.80;1.00
9167;DHT22;4618;48.818;9.088;2023-02-01T01:58:00;3.80;1.00
9167;DHT22;4618;48.818;9.088;2023-02-01T02:00:27;3.90;1.00
9167;DHT22;4618;48.818;9.088;2023-02-01T02:02:57;3.90;99.90
9167;DHT22;4618;48.818;9.088;2023-02-01T02:05:24;3.90;99.90
9167;DHT22;4618;48.818;9.088;2023-02-01T02:07:52;3.90;99.90
9167;DHT22;4618;48.818;9.088;2023-02-01T02:10:18;4.00;99.90
9167;DHT22;4618;48.818;9.088;2023-02-01T02:12:46;3.90;99.90
9167;DHT22;4618;48.818;9.088;2023-02-01T02:15:14;4.10;99.90
9167;DHT22;4618;48.818;9.088;2023-02-01T02:18:02;4.00;99.90
9167;DHT22;4618;48.818;9.088;2023-02-01T02:36:11;3.80;1.00
9167;DHT22;4618;48.818;9.088;2023-02-01T02:39:08;3.90;99.90
9167;DHT22;4618;48.818;9.088;2023-02-01T02:53:24;4.00;99.90
9167;DHT22;4618;48.818;9.088;2023-02-01T02:56:12;4.00;99.90
9167;DHT22;4618;48.818;9.088;2023-02-01T02:58:59;4.00;99.90
9167;DHT22;4618;48.818;9.088;2023-02-01T03:01:43;4.00;99.90
9167;DHT22;4618;48.818;9.088;2023-02-01T03:04:27;4.00;99.90
9167;DHT22;4618;48.818;9.088;2023-02-01T03:06:53;4.00;1.00
9167;DHT22;4618;48.818;9.088;2023-02-01T03:09:31;4.00;99.90
9167;DHT22;4618;48.818;9.088;2023-02-01T03:12:01;4.00;99.90
9167;DHT22;4618;48.818;9.088;2023-02-01T03:14:51;4.00;1.00
9167;DHT22;4618;48.818;9.088;2023-02-01T03:17:21;4.00;1.00
9167;DHT22;4618;48.818;9.088;2023-02-01T03:19:51;4.00;1.00
9167;DHT22;4618;48.818;9.088;2023-02-01T03:22:20;4.00;1.00
9167;DHT22;4618;48.818;9.088;2023-02-01T03:24:59;3.90;1.00
9167;DHT22;4618;48.818;9.088;2023-02-01T03:27:41;3.90;1.00
9167;DHT22;4618;48.818;9.088;2023-02-01T03:32:50;4.00;1.00
9167;DHT22;4618;48.818;9.088;2023-02-01T03:37:59;4.00;1.00
9167;DHT22;4618;48.818;9.088;2023-02-01T03:40:27;4.00;99.90
9167;DHT22;4618;48.818;9.088;2023-02-01T03:42:58;4.10;1.00
9167;DHT22;4618;48.818;9.088;2023-02-01T03:45:30;4.00;1.00
9167;DHT22;4618;48.818;9.088;2023-02-01T03:47:59;4.10;1.00
9167;DHT22;4618;48.818;9.088;2023-02-01T03:50:26;4.10;99.90
9167;DHT22;4618;48.818;9.088;2023-02-01T03:53:03;4.10;99.90
9167;DHT22;4618;48.818;9.088;2023-02-01T03:55:31;4.20;99.90
9167;DHT22;4618;48.818;9.088;2023-02-01T03:58:14;4.10;99.90
9167;DHT22;4618;48.818;9.088;2023-02-01T04:00:44;4.00;1.00
9167;DHT22;4618;48.818;9.088;2023-02-01T04:03:11;4.00;99.90
9167;DHT22;4618;48.818;9.088;2023-02-01T04:05:37;3.80;99.90
9167;DHT22;4618;48.818;9.088;2023-02-01T04:08:03;3.90;99.90
9167;DHT22;4618;48.818;9.088;2023-02-01T04:10:30;3.90;99.90
9167;DHT22;4618;48.818;9.088;2023-02-01T04:12:56;3.90;1.00
9167;DHT22;4618;48.818;9.088;2023-02-01T04:15:21;3.90;1.00
9167;DHT22;4618;48.818;9.088;2023-02-01T04:17:47;4.00;1.00
9167;DHT22;4618;48.818;9.088;2023-02-01T04:20:12;4.10;1.00
9167;DHT22;4618;48.818;9.088;2023-02-01T04:22:38;4.10;1.00
9167;DHT22;4618;48.818;9.088;2023-02-01T04:25:04;4.00;1.00
9167;DHT22;4618;48.818;9.088;2023-02-01T04:27:31;4.00;1.00
9167;DHT22;4618;48.818;9.088;2023-02-01T04:29:56;4.00;1.00
9167;DHT22;4618;48.818;9.088;2023-02-01T04:32:22;4.00;1.00
9167;DHT22;4618;48.818;9.088;2023-02-01T04:34:48;4.00;1.00
9167;DHT22;4618;48.818;9.088;2023-02-01T04:37:13;4.10;1.00
9167;DHT22;4618;48.818;9.088;2023-02-01T04:39:39;4.10;1.00
9167;DHT22;4618;48.818;9.088;2023-02-01T04:42:04;4.10;1.00
9167;DHT22;4618;48.818;9.088;2023-02-01T04:44:30;4.10;1.00
9167;DHT22;4618;48.818;9.088;2023-02-01T04:46:55;4.20;1.00
9167;DHT22;4618;48.818;9.088;2023-02-01T04:49:21;4.20;99.90
9167;DHT22;4618;48.818;9.088;2023-02-01T04:51:47;4.10;1.00
9167;DHT22;4618;48.818;9.088;2023-02-01T04:54:13;4.10;1.00
9167;DHT22;4618;48.818;9.088;2023-02-01T04:56:39;4.20;1.00
9167;DHT22;4618;48.818;9.088;2023-02-01T04:59:05;4.20;99.90
9167;DHT22;4618;48.818;9.088;2023-02-01T05:01:31;4.20;99.90
9167;DHT22;4618;48.818;9.088;2023-02-01T05:03:56;4.20;99.90
9167;DHT22;4618;48.818;9.088;2023-02-01T05:06:22;4.10;99.90
9167;DHT22;4618;48.818;9.088;2023-02-01T05:08:48;4.20;99.90
9167;DHT22;4618;48.818;9.088;2023-02-01T05:11:14;4.20;99.90
9167;DHT22;4618;48.818;9.088;2023-02-01T05:13:59;4.30;99.90
9167;DHT22;4618;48.818;9.088;2023-02-01T05:16:26;4.30;99.90
9167;DHT22;4618;48.818;9.088;2023-02-01T05:18:52;4.30;99.90
9167;DHT22;4618;48.818;9.088;2023-02-01T05:21:17;4.40;99.90
9167;DHT22;4618;48.818;9.088;2023-02-01T05:23:43;4.40;49.80
9167;DHT22;4618;48.818;9.088;2023-02-01T05:26:28;4.40;99.90
9167;DHT22;4618;48.818;9.088;2023-02-01T05:28:54;4.30;99.90
9167;DHT22;4618;48.818;9.088;2023-02-01T05:31:20;4.30;99.90
9167;DHT22;4618;48.818;9.088;2023-02-01T05:33:46;4.40;99.90
9167;DHT22;4618;48.818;9.088;2023-02-01T05:36:11;4.30;99.90
9167;DHT22;4618;48.818;9.088;2023-02-01T05:38:37;4.30;99.90
9167;DHT22;4618;48.818;9.088;2023-02-01T05:41:02;4.30;99.90
9167;DHT22;4618;48.818;9.088;2023-02-01T05:43:28;4.30;99.90
9167;DHT22;4618;48.818;9.088;2023-02-01T05:45:53;4.40;99.90
9167;DHT22;4618;48.818;9.088;2023-02-01T05:48:19;4.50;92.10
9167;DHT22;4618;48.818;9.088;2023-02-01T05:50:45;4.40;51.50
9167;DHT22;4618;48.818;9.088;2023-02-01T05:53:11;4.50;99.90
9167;DHT22;4618;48.818;9.088;2023-02-01T05:55:37;4.40;99.90
9167;DHT22;4618;48.818;9.088;2023-02-01T05:58:03;4.40;1.00
9167;DHT22;4618;48.818;9.088;2023-02-01T06:00:29;4.40;1.00
9167;DHT22;4618;48.818;9.088;2023-02-01T06:02:54;4.40;84.70
9167;DHT22;4618;48.818;9.088;2023-02-01T06:05:20;4.40;98.90
9167;DHT22;4618;48.818;9.088;2023-02-01T06:07:46;4.40;1.10
9167;DHT22;4618;48.818;9.088;2023-02-01T06:10:12;4.30;1.00
9167;DHT22;4618;48.818;9.088;2023-02-01T06:12:38;4.40;1.00
9167;DHT22;4618;48.818;9.088;2023-02-01T06:15:04;4.50;1.00
9167;DHT22;4618;48.818;9.088;2023-02-01T06:17:30;4.50;99.90
9167;DHT22;4618;48.818;9.088;2023-02-01T06:19:56;4.60;99.90
9167;DHT22;4618;48.818;9.088;2023-02-01T06:22:21;4.60;99.90
9167;DHT22;4618;48.818;9.088;2023-02-01T06:24:48;4.70;1.00
9167;DHT22;4618;48.818;9.088;2023-02-01T06:27:14;4.80;1.00
9167;DHT22;4618;48.818;9.088;2023-02-01T06:29:40;4.80;1.00
9167;DHT22;4618;48.818;9.088;2023-02-01T06:32:06;4.80;1.00
9167;DHT22;4618;48.818;9.088;2023-02-01T06:34:31;4.90;1.00
9167;DHT22;4618;48.818;9.088;2023-02-01T06:36:57;5.00;1.00
9167;DHT22;4618;48.818;9.088;2023-02-01T06:39:22;5.00;1.00
9167;DHT22;4618;48.818;9.088;2023-02-01T06:41:48;5.10;99.90
9167;DHT22;4618;48.818;9.088;2023-02-01T06:44:15;5.10;99.90
9167;DHT22;4618;48.818;9.088;2023-02-01T06:46:41;5.10;99.90
9167;DHT22;4618;48.818;9.088;2023-02-01T06:49:07;5.10;99.90
9167;DHT22;4618;48.818;9.088;2023-02-01T06:51:33;5.10;99.90
9167;DHT22;4618;48.818;9.088;2023-02-01T06:53:58;5.20;97.00
9167;DHT22;4618;48.818;9.088;2023-02-01T06:56:24;5.20;99.90
9167;DHT22;4618;48.818;9.088;2023-02-01T06:58:50;5.20;63.80
9167;DHT22;4618;48.818;9.088;2023-02-01T07:01:16;5.30;1.00
9167;DHT22;4618;48.818;9.088;2023-02-01T07:03:42;5.30;1.00
9167;DHT22;4618;48.818;9.088;2023-02-01T07:06:09;5.30;1.00
9167;DHT22;4618;48.818;9.088;2023-02-01T07:08:36;5.30;1.00
9167;DHT22;4618;48.818;9.088;2023-02-01T07:11:20;5.20;1.00
9167;DHT22;4618;48.818;9.088;2023-02-01T07:13:46;5.30;1.00
9167;DHT22;4618;48.818;9.088;2023-02-01T07:16:14;5.30;1.00
9167;DHT22;4618;48.818;9.088;2023-02-01T07:18:40;5.30;1.00
9167;DHT22;4618;48.818;9.088;2023-02-01T07:21:06;5.30;1.00
9167;DHT22;4618;48.818;9.088;2023-02-01T07:23:32;5.40;99.90
9167;DHT22;4618;48.818;9.088;2023-02-01T07:25:59;5.40;99.90
9167;DHT22;4618;48.818;9.088;2023-02-01T07:28:25;5.50;99.90
9167;DHT22;4618;48.818;9.088;2023-02-01T07:30:52;5.50;99.90
9167;DHT22;4618;48.818;9.088;2023-02-01T07:33:22;5.50;99.90
9167;DHT22;4618;48.818;9.088;2023-02-01T07:35:50;5.50;99.90
9167;DHT22;4618;48.818;9.088;2023-02-01T07:38:17;5.50;99.90
9167;DHT22;4618;48.818;9.088;2023-02-01T07:40:42;5.30;99.90
9167;DHT22;4618;48.818;9.088;2023-02-01T07:43:08;5.40;99.90
9167;DHT22;4618;48.818;9.088;2023-02-01T07:45:37;5.50;99.90
9167;DHT22;4618;48.818;9.088;2023-02-01T07:48:03;5.50;99.90
9167;DHT22;4618;48.818;9.088;2023-02-01T07:50:29;5.60;94.80
9167;DHT22;4618;48.818;9.088;2023-02-01T07:52:57;5.60;29.40
9167;DHT22;4618;48.818;9.088;2023-02-01T07:55:23;5.60;99.90
9167;DHT22;4618;48.818;9.088;2023-02-01T07:57:50;5.60;1.00
9167;DHT22;4618;48.818;9.088;2023-02-01T08:00:15;5.70;80.10
9167;DHT22;4618;48.818;9.088;2023-02-01T08:03:00;5.60;99.90
9167;DHT22;4618;48.818;9.088;2023-02-01T08:05:27;5.60;54.80
9167;DHT22;4618;48.818;9.088;2023-02-01T08:07:52;5.60;18.10
9167;DHT22;4618;48.818;9.088;2023-02-01T08:10:18;5.60;1.00
9167;DHT22;4618;48.818;9.088;2023-02-01T08:12:45;5.60;99.90
9167;DHT22;4618;48.818;9.088;2023-02-01T08:15:17;5.50;99.90
9167;DHT22;4618;48.818;9.088;2023-02-01T08:17:50;5.50;99.90
9167;DHT22;4618;48.818;9.088;2023-02-01T08:20:17;5.60;9.80
9167;DHT22;4618;48.818;9.088;2023-02-01T08:22:44;5.60;11.00
9167;DHT22;4618;48.818;9.088;2023-02-01T08:25:10;5.70;1.00
9167;DHT22;4618;48.818;9.088;2023-02-01T08:27:36;5.60;99.90
9167;DHT22;4618;48.818;9.088;2023-02-01T08:30:03;5.60;59.20
9167;DHT22;4618;48.818;9.088;2023-02-01T08:32:30;5.70;1.00
9167;DHT22;4618;48.818;9.088;2023-02-01T08:34:55;5.90;1.00
9167;DHT22;4618;48.818;9.088;2023-02-01T08:37:21;5.90;1.00
9167;DHT22;4618;48.818;9.088;2023-02-01T08:39:47;6.00;1.00
9167;DHT22;4618;48.818;9.088;2023-02-01T08:42:16;6.10;1.00
9167;DHT22;4618;48.818;9.088;2023-02-01T08:45:01;6.10;1.00
9167;DHT22;4618;48.818;9.088;2023-02-01T08:47:27;6.10;99.90
9167;DHT22;4618;48.818;9.088;2023-02-01T08:49:53;6.20;99.90
9167;DHT22;4618;48.818;9.088;2023-02-01T08:52:19;6.20;99.90
9167;DHT22;4618;48.818;9.088;2023-02-01T08:54:45;6.20;99.90
9167;DHT22;4618;48.818;9.088;2023-02-01T08:57:10;6.20;99.90
9167;DHT22;4618;48.818;9.088;2023-02-01T08:59:36;6.10;99.90
9167;DHT22;4618;48.818;9.088;2023-02-01T09:02:02;6.00;99.90
9167;DHT22;4618;48.818;9.088;2023-02-01T09:04:27;6.10;99.90
9167;DHT22;4618;48.818;9.088;2023-02-01T09:06:53;6.10;99.90
9167;DHT22;4618;48.818;9.088;2023-02-01T09:09:21;6.00;1.00
9167;DHT22;4618;48.818;9.088;2023-02-01T09:11:47;5.90;1.00
9167;DHT22;4618;48.818;9.088;2023-02-01T09:14:12;5.90;1.00
9167;DHT22;4618;48.818;9.088;2023-02-01T09:16:38;6.00;1.00
9167;DHT22;4618;48.818;9.088;2023-02-01T09:19:04;5.90;1.00
9167;DHT22;4618;48.818;9.088;2023-02-01T09:21:29;6.00;1.00
9167;DHT22;4618;48.818;9.088;2023-02-01T09:23:55;6.00;1.00
9167;DHT22;4618;48.818;9.088;2023-02-01T09:26:21;6.00;1.00
9167;DHT22;4618;48.818;9.088;2023-02-01T09:28:46;6.00;1.00
9167;DHT22;4618;48.818;9.088;2023-02-01T09:31:12;6.10;1.00
9167;DHT22;4618;48.818;9.088;2023-02-01T09:33:37;6.20;99.90
9167;DHT22;4618;48.818;9.088;2023-02-01T09:36:04;6.30;99.90
9167;DHT22;4618;48.818;9.088;2023-02-01T09:38:31;6.30;99.90
9167;DHT22;4618;48.818;9.088;2023-02-01T09:40:57;6.50;99.90
9167;DHT22;4618;48.818;9.088;2023-02-01T09:43:27;6.50;99.90
9167;DHT22;4618;48.818;9.088;2023-02-01T09:45:59;6.70;1.00
9167;DHT22;4618;48.818;9.088;2023-02-01T09:48:31;6.70;28.00
9167;DHT22;4618;48.818;9.088;2023-02-01T09:51:00;6.50;3.00
9167;DHT22;4618;48.818;9.088;2023-02-01T09:53:33;6.40;1.00
9167;DHT22;4618;48.818;9.088;2023-02-01T09:56:18;6.40;99.90
9167;DHT22;4618;48.818;9.088;2023-02-01T09:59:04;6.60;1.00
9167;DHT22;4618;48.818;9.088;2023-02-01T10:01:34;6.50;1.00
9167;DHT22;4618;48.818;9.088;2023-02-01T10:04:13;6.40;1.00
9167;DHT22;4618;48.818;9.088;2023-02-01T10:15:30;6.40;1.00
9167;DHT22;4618;48.818;9.088;2023-02-01T10:20:52;6.40;1.00
9167;DHT22;4618;48.818;9.088;2023-02-01T10:23:37;6.40;1.00
9167;DHT22;4618;48.818;9.088;2023-02-01T10:26:24;6.40;30.90
9167;DHT22;4618;48.818;9.088;2023-02-01T10:29:00;6.60;1.00
9167;DHT22;4618;48.818;9.088;2023-02-01T10:31:29;6.60;1.00
9167;DHT22;4618;48.818;9.088;2023-02-01T10:33:57;6.70;1.00
9167;DHT22;4618;48.818;9.088;2023-02-01T10:36:29;6.60;1.00
9167;DHT22;4618;48.818;9.088;2023-02-01T10:38:57;6.60;1.00
9167;DHT22;4618;48.818;9.088;2023-02-01T10:41:26;6.60;1.00
9167;DHT22;4618;48.818;9.088;2023-02-01T10:43:57;6.60;1.00
9167;DHT22;4618;48.818;9.088;2023-02-01T10:46:23;6.70;1.00
9167;DHT22;4618;48.818;9.088;2023-02-01T10:48:50;6.90;1.00
9167;DHT22;4618;48.818;9.088;2023-02-01T10:51:27;6.90;1.00
9167;DHT22;4618;48.818;9.088;2023-02-01T10:53:58;6.70;1.00
9167;DHT22;4618;48.818;9.088;2023-02-01T10:56:27;6.70;99.90
9167;DHT22;4618;48.818;9.088;2023-02-01T10:59:03;6.50;1.00
9167;DHT22;4618;48.818;9.088;2023-02-01T11:01:42;6.60;1.00
9167;DHT22;4618;48.818;9.088;2023-02-01T11:04:18;6.70;1.00
9167;DHT22;4618;48.818;9.088;2023-02-01T11:06:52;6.60;1.00
9167;DHT22;4618;48.818;9.088;2023-02-01T11:09:21;6.70;1.00
9167;DHT22;4618;48.818;9.088;2023-02-01T11:16:59;6.60;1.00
9167;DHT22;4618;48.818;9.088;2023-02-01T11:19:29;6.60;1.00
9167;DHT22;4618;48.818;9.088;2023-02-01T11:21:57;6.60;99.90
9167;DHT22;4618;48.818;9.088;2023-02-01T11:24:26;6.40;99.90
9167;DHT22;4618;48.818;9.088;2023-02-01T11:27:01;6.40;99.90
9167;DHT22;4618;48.818;9.088;2023-02-01T11:29:35;6.50;1.00
9167;DHT22;4618;48.818;9.088;2023-02-01T11:32:02;6.50;99.90
9167;DHT22;4618;48.818;9.088;2023-02-01T11:34:43;6.60;99.90
9167;DHT22;4618;48.818;9.088;2023-02-01T11:37:24;6.60;99.90
9167;DHT22;4618;48.818;9.088;2023-02-01T11:39:58;6.50;99.90
9167;DHT22;4618;48.818;9.088;2023-02-01T11:42:25;6.50;99.90
9167;DHT22;4618;48.818;9.088;2023-02-01T11:44:51;6.50;99.90
9167;DHT22;4618;48.818;9.088;2023-02-01T11:47:40;6.50;99.90
9167;DHT22;4618;48.818;9.088;2023-02-01T11:51:00;6.50;1.00
9167;DHT22;4618;48.818;9.088;2023-02-01T11:53:43;6.60;1.00
9167;DHT22;4618;48.818;9.088;2023-02-01T12:04:42;6.60;99.90
9167;DHT22;4618;48.818;9.088;2023-02-01T12:13:07;6.30;1.00
9167;DHT22;4618;48.818;9.088;2023-02-01T12:18:34;6.40;99.90
9167;DHT22;4618;48.818;9.088;2023-02-01T12:21:28;6.50;99.90
9167;DHT22;4618;48.818;9.088;2023-02-01T12:24:10;6.60;99.90
9167;DHT22;4618;48.818;9.088;2023-02-01T12:27:03;6.50;99.90
9167;DHT22;4618;48.818;9.088;2023-02-01T12:29:56;6.50;99.90
9167;DHT22;4618;48.818;9.088;2023-02-01T12:32:35;6.40;1.00
9167;DHT22;4618;48.818;9.088;2023-02-01T12:43:04;6.20;1.00
9167;DHT22;4618;48.818;9.088;2023-02-01T12:45:42;6.20;1.00
9167;DHT22;4618;48.818;9.088;2023-02-01T12:48:26;6.30;1.00
9167;DHT22;4618;48.818;9.088;2023-02-01T12:50:56;6.30;1.00
9167;DHT22;4618;48.818;9.088;2023-02-01T12:53:26;6.30;1.00
9167;DHT22;4618;48.818;9.088;2023-02-01T12:56:01;6.30;1.00
9167;DHT22;4618;48.818;9.088;2023-02-01T12:58:41;6.20;1.00
9167;DHT22;4618;48.818;9.088;2023-02-01T13:01:14;6.10;1.00
9167;DHT22;4618;48.818;9.088;2023-02-01T13:04:08;6.00;99.90
9167;DHT22;4618;48.818;9.088;2023-02-01T13:12:04;5.80;99.90
9167;DHT22;4618;48.818;9.088;2023-02-01T13:17:33;6.00;5.50
9167;DHT22;4618;48.818;9.088;2023-02-01T13:20:23;6.10;1.00
9167;DHT22;4618;48.818;9.088;2023-02-01T13:22:57;6.10;1.00
9167;DHT22;4618;48.818;9.088;2023-02-01T13:25:47;6.10;1.00
9167;DHT22;4618;48.818;9.088;2023-02-01T13:34:34;6.10;1.00
9167;DHT22;4618;48.818;9.088;2023-02-01T13:42:21;6.30;1.00
9167;DHT22;4618;48.818;9.088;2023-02-01T13:44:56;6.30;1.00
9167;DHT22;4618;48.818;9.088;2023-02-01T13:47:29;6.10;1.00
9167;DHT22;4618;48.818;9.088;2023-02-01T13:49:58;6.00;11.00
9167;DHT22;4618;48.818;9.088;2023-02-01T13:55:13;5.80;99.90
9167;DHT22;4618;48.818;9.088;2023-02-01T13:57:42;5.80;99.90
9167;DHT22;4618;48.818;9.088;2023-02-01T14:00:36;5.60;99.90
9167;DHT22;4618;48.818;9.088;2023-02-01T14:23:54;6.00;1.00
9167;DHT22;4618;48.818;9.088;2023-02-01T14:26:26;5.90;1.00
9167;DHT22;4618;48.818;9.088;2023-02-01T14:29:03;5.90;1.00
9167;DHT22;4618;48.818;9.088;2023-02-01T14:31:40;6.00;1.00
9167;DHT22;4618;48.818;9.088;2023-02-01T14:34:22;6.00;1.00
9167;DHT22;4618;48.818;9.088;2023-02-01T14:36:51;6.00;1.00
9167;DHT22;4618;48.818;9.088;2023-02-01T14:39:26;6.00;1.00
9167;DHT22;4618;48.818;9.088;2023-02-01T14:41:58;6.00;1.00
9167;DHT22;4618;48.818;9.088;2023-02-01T14:44:28;6.00;1.00
9167;DHT22;4618;48.818;9.088;2023-02-01T14:47:04;5.90;1.00
9167;DHT22;4618;48.818;9.088;2023-02-01T14:49:33;5.90;1.00
9167;DHT22;4618;48.818;9.088;2023-02-01T14:52:02;6.00;1.00
9167;DHT22;4618;48.818;9.088;2023-02-01T14:54:31;6.00;1.00
9167;DHT22;4618;48.818;9.088;2023-02-01T14:56:57;5.90;1.00
9167;DHT22;4618;48.818;9.088;2023-02-01T14:59:25;5.90;1.00
9167;DHT22;4618;48.818;9.088;2023-02-01T15:01:58;5.90;5.30
9167;DHT22;4618;48.818;9.088;2023-02-01T15:04:27;5.80;99.90
9167;DHT22;4618;48.818;9.088;2023-02-01T15:06:57;5.90;1.00
9167;DHT22;4618;48.818;9.088;2023-02-01T15:09:34;5.90;1.00
9167;DHT22;4618;48.818;9.088;2023-02-01T15:12:03;5.80;1.00
9167;DHT22;4618;48.818;9.088;2023-02-01T15:14:32;5.90;1.00
9167;DHT22;4618;48.818;9.088;2023-02-01T15:16:58;5.90;1.00
9167;DHT22;4618;48.818;9.088;2023-02-01T15:19:28;5.90;1.00
9167;DHT22;4618;48.818;9.088;2023-02-01T15:21:56;5.90;1.00
9167;DHT22;4618;48.818;9.088;2023-02-01T15:24:27;5.90;1.00
9167;DHT22;4618;48.818;9.088;2023-02-01T15:26:54;5.90;1.00
9167;DHT22;4618;48.818;9.088;2023-02-01T15:29:23;5.90;1.00
9167;DHT22;4618;48.818;9.088;2023-02-01T15:31:52;5.90;1.00
9167;DHT22;4618;48.818;9.088;2023-02-01T15:34:19;5.90;1.00
9167;DHT22;4618;48.818;9.088;2023-02-01T15:36:46;5.90;1.00
9167;DHT22;4618;48.818;9.088;2023-02-01T15:39:18;5.90;1.00
9167;DHT22;4618;48.818;9.088;2023-02-01T15:41:57;5.90;1.00
9167;DHT22;4618;48.818;9.088;2023-02-01T15:44:38;5.90;1.00
9167;DHT22;4618;48.818;9.088;2023-02-01T15:47:26;5.90;1.00
9167;DHT22;4618;48.818;9.088;2023-02-01T15:49:57;5.90;1.00
9167;DHT22;4618;48.818;9.088;2023-02-01T15:55:01;6.00;99.90
9167;DHT22;4618;48.818;9.088;2023-02-01T15:57:34;6.00;99.90
9167;DHT22;4618;48.818;9.088;2023-02-01T16:02:57;6.00;85.40
9167;DHT22;4618;48.818;9.088;2023-02-01T16:05:34;6.10;99.90
9167;DHT22;4618;48.818;9.088;2023-02-01T16:08:25;6.10;52.30
9167;DHT22;4618;48.818;9.088;2023-02-01T16:10:54;6.00;64.10
9167;DHT22;4618;48.818;9.088;2023-02-01T16:13:20;6.00;99.90
9167;DHT22;4618;48.818;9.088;2023-02-01T16:15:47;6.00;69.20
9167;DHT22;4618;48.818;9.088;2023-02-01T16:18:14;6.00;99.90
9167;DHT22;4618;48.818;9.088;2023-02-01T16:20:41;5.90;99.90
9167;DHT22;4618;48.818;9.088;2023-02-01T16:23:07;6.00;2.90
9167;DHT22;4618;48.818;9.088;2023-02-01T16:25:34;6.00;99.90
9167;DHT22;4618;48.818;9.088;2023-02-01T16:27:59;5.90;66.70
9167;DHT22;4618;48.818;9.088;2023-02-01T16:30:25;6.00;1.00
9167;DHT22;4618;48.818;9.088;2023-02-01T16:32:55;6.00;99.90
9167;DHT22;4618;48.818;9.088;2023-02-01T16:35:31;6.00;1.00
9167;DHT22;4618;48.818;9.088;2023-02-01T16:38:04;6.00;26.40
9167;DHT22;4618;48.818;9.088;2023-02-01T16:40:37;6.00;1.00
9167;DHT22;4618;48.818;9.088;2023-02-01T16:43:24;6.00;1.00
9167;DHT22;4618;48.818;9.088;2023-02-01T16:45:52;6.00;1.00
9167;DHT22;4618;48.818;9.088;2023-02-01T16:48:29;6.00;2.60
9167;DHT22;4618;48.818;9.088;2023-02-01T16:50:59;5.90;99.90
9167;DHT22;4618;48.818;9.088;2023-02-01T16:53:27;5.90;22.30
9167;DHT22;4618;48.818;9.088;2023-02-01T16:55:54;5.90;1.00
9167;DHT22;4618;48.818;9.088;2023-02-01T16:58:20;6.00;1.80
9167;DHT22;4618;48.818;9.088;2023-02-01T17:00:47;6.00;2.50
9167;DHT22;4618;48.818;9.088;2023-02-01T17:03:12;5.90;79.10
9167;DHT22;4618;48.818;9.088;2023-02-01T17:05:43;5.90;72.20
9167;DHT22;4618;48.818;9.088;2023-02-01T17:08:13;5.90;99.90
9167;DHT22;4618;48.818;9.088;2023-02-01T17:10:41;5.90;99.90
9167;DHT22;4618;48.818;9.088;2023-02-01T17:13:12;6.00;1.00
9167;DHT22;4618;48.818;9.088;2023-02-01T17:15:38;6.00;1.00
9167;DHT22;4618;48.818;9.088;2023-02-01T17:18:05;5.90;1.00
9167;DHT22;4618;48.818;9.088;2023-02-01T17:20:32;6.00;1.00
9167;DHT22;4618;48.818;9.088;2023-02-01T17:22:58;5.90;2.60
9167;DHT22;4618;48.818;9.088;2023-02-01T17:25:29;5.90;2.60
9167;DHT22;4618;48.818;9.088;2023-02-01T17:27:56;6.00;1.00
9167;DHT22;4618;48.818;9.088;2023-02-01T17:30:21;5.90;99.90
9167;DHT22;4618;48.818;9.088;2023-02-01T17:32:47;5.90;97.50
9167;DHT22;4618;48.818;9.088;2023-02-01T17:35:21;5.90;99.90
9167;DHT22;4618;48.818;9.088;2023-02-01T17:37:47;5.90;99.90
9167;DHT22;4618;48.818;9.088;2023-02-01T17:40:14;5.90;99.90
9167;DHT22;4618;48.818;9.088;2023-02-01T17:42:39;5.90;99.90
9167;DHT22;4618;48.818;9.088;2023-02-01T17:45:32;5.80;99.90
9167;DHT22;4618;48.818;9.088;2023-02-01T17:47:59;5.80;99.90
9167;DHT22;4618;48.818;9.088;2023-02-01T17:50:26;5.90;99.90
9167;DHT22;4618;48.818;9.088;2023-02-01T17:52:52;5.90;99.90
9167;DHT22;4618;48.818;9.088;2023-02-01T17:55:20;5.90;99.90
9167;DHT22;4618;48.818;9.088;2023-02-01T17:57:47;5.90;99.90
9167;DHT22;4618;48.818;9.088;2023-02-01T18:00:14;5.80;99.90
9167;DHT22;4618;48.818;9.088;2023-02-01T18:02:41;5.80;99.90
9167;DHT22;4618;48.818;9.088;2023-02-01T18:05:26;5.70;99.90
9167;DHT22;4618;48.818;9.088;2023-02-01T18:07:52;5.70;1.00
9167;DHT22;4618;48.818;9.088;2023-02-01T18:10:18;5.80;1.00
9167;DHT22;4618;48.818;9.088;2023-02-01T18:12:44;5.80;1.00
9167;DHT22;4618;48.818;9.088;2023-02-01T18:15:20;5.80;1.00
9167;DHT22;4618;48.818;9.088;2023-02-01T18:17:47;5.70;1.00
9167;DHT22;4618;48.818;9.088;2023-02-01T18:20:15;5.80;1.00
9167;DHT22;4618;48.818;9.088;2023-02-01T18:22:41;5.90;1.00
9167;DHT22;4618;48.818;9.088;2023-02-01T18:27:41;5.90;1.00
9167;DHT22;4618;48.818;9.088;2023-02-01T18:30:08;5.90;1.00
9167;DHT22;4618;48.818;9.088;2023-02-01T18:32:34;5.80;1.00
9167;DHT22;4618;48.818;9.088;2023-02-01T18:34:59;5.80;1.00
9167;DHT22;4618;48.818;9.088;2023-02-01T18:37:25;5.90;1.00
9167;DHT22;4618;48.818;9.088;2023-02-01T18:39:50;5.90;1.00
9167;DHT22;4618;48.818;9.088;2023-02-01T18:42:16;5.90;1.00
9167;DHT22;4618;48.818;9.088;2023-02-01T18:44:42;5.80;99.90
9167;DHT22;4618;48.818;9.088;2023-02-01T18:47:07;5.90;99.90
9167;DHT22;4618;48.818;9.088;2023-02-01T18:49:33;5.80;1.00